Observation data for Tulia on 09/13/2017      Previous  Date  Next       Current Mesonet Observations  Soil Data  Daily Summary Page  Observations in Plain Language
KTIS 130500Z 13005KT 17/13 A2998 RMK A01 T01660132  RH  082%=      5-min Rain = 0
KTIS 130505Z 14005KT 17/13 A2998 RMK A01 T01660131  RH  082%=      5-min Rain = 0
KTIS 130510Z 14005KT 17/13 A2998 RMK A01 T01660131  RH  081%=      5-min Rain = 0
KTIS 130515Z 14005KT 17/13 A2998 RMK A01 T01660131  RH  081%=      5-min Rain = 0
KTIS 130520Z 14005KT 17/13 A2998 RMK A01 T01660130  RH  081%=      5-min Rain = 0
KTIS 130525Z 14006KT 17/13 A2998 RMK A01 T01650130  RH  082%=      5-min Rain = 0
KTIS 130530Z 14006KT 16/13 A2998 RMK A01 T01630130  RH  082%=      5-min Rain = 0
KTIS 130535Z 14005KT 16/13 A2998 RMK A01 T01620130  RH  083%=      5-min Rain = 0
KTIS 130540Z 15005KT 16/13 A2998 RMK A01 T01610130  RH  083%=      5-min Rain = 0
KTIS 130545Z 15005KT 16/13 A2998 RMK A01 T01600130  RH  084%=      5-min Rain = 0
KTIS 130550Z 15004KT 16/13 A2997 RMK A01 T01580129  RH  085%=      5-min Rain = 0
KTIS 130555Z 15004KT 16/13 A2997 RMK A01 T01570129  RH  085%=      5-min Rain = 0
KTIS 130600Z 15004KT 16/13 A2997 RMK A01 T01580128  RH  084%=      5-min Rain = 0
KTIS 130605Z 14004KT 16/13 A2997 RMK A01 T01560127  RH  084%=      5-min Rain = 0
KTIS 130610Z 15004KT 16/13 A2997 RMK A01 T01550126  RH  085%=      5-min Rain = 0
KTIS 130615Z 16004KT 15/13 A2997 RMK A01 T01540126  RH  085%=      5-min Rain = 0
KTIS 130620Z 16006KT 16/13 A2997 RMK A01 T01560126  RH  084%=      5-min Rain = 0
KTIS 130625Z 16005KT 16/13 A2997 RMK A01 T01580125  RH  083%=      5-min Rain = 0
KTIS 130630Z 18005KT 16/12 A2997 RMK A01 T01610124  RH  080%=      5-min Rain = 0
KTIS 130635Z 18004KT 16/12 A2997 RMK A01 T01630123  RH  079%=      5-min Rain = 0
KTIS 130640Z 18003KT 16/12 A2997 RMK A01 T01630122  RH  078%=      5-min Rain = 0
KTIS 130645Z 18004KT 16/12 A2997 RMK A01 T01620122  RH  079%=      5-min Rain = 0
KTIS 130650Z 17004KT 16/12 A2996 RMK A01 T01600121  RH  079%=      5-min Rain = 0
KTIS 130655Z 21005KT 16/12 A2997 RMK A01 T01580119  RH  079%=      5-min Rain = 0
KTIS 130700Z 19004KT 16/12 A2996 RMK A01 T01580118  RH  079%=      5-min Rain = 0
KTIS 130705Z 20004KT 16/12 A2997 RMK A01 T01590120  RH  079%=      5-min Rain = 0
KTIS 130710Z 20004KT 16/12 A2996 RMK A01 T01610121  RH  079%=      5-min Rain = 0
KTIS 130715Z 19004KT 16/12 A2996 RMK A01 T01620121  RH  078%=      5-min Rain = 0
KTIS 130720Z 20005KT 16/12 A2997 RMK A01 T01630119  RH  077%=      5-min Rain = 0
KTIS 130725Z 23006KT 16/11 A2997 RMK A01 T01620114  RH  075%=      5-min Rain = 0
KTIS 130730Z 23007KT 16/11 A2997 RMK A01 T01630114  RH  074%=      5-min Rain = 0
KTIS 130735Z 22006KT 17/12 A2997 RMK A01 T01670115  RH  073%=      5-min Rain = 0
KTIS 130740Z 21005KT 17/12 A2997 RMK A01 T01700116  RH  072%=      5-min Rain = 0
KTIS 130745Z 20006KT 17/12 A2996 RMK A01 T01710116  RH  071%=      5-min Rain = 0
KTIS 130750Z 21006KT 17/12 A2996 RMK A01 T01690115  RH  072%=      5-min Rain = 0
KTIS 130755Z 21006KT 17/11 A2996 RMK A01 T01690114  RH  071%=      5-min Rain = 0
KTIS 130800Z 20006KT 17/11 A2996 RMK A01 T01720114  RH  070%=      5-min Rain = 0
KTIS 130805Z 20006KT 17/11 A2996 RMK A01 T01700114  RH  071%=      5-min Rain = 0
KTIS 130810Z 20005KT 17/11 A2996 RMK A01 T01650114  RH  073%=      5-min Rain = 0
KTIS 130815Z 19005KT 16/12 A2995 RMK A01 T01600115  RH  076%=      5-min Rain = 0
KTIS 130820Z 19005KT 16/12 A2995 RMK A01 T01560115  RH  078%=      5-min Rain = 0
KTIS 130825Z 18005KT 16/12 A2995 RMK A01 T01550115  RH  079%=      5-min Rain = 0
KTIS 130830Z 17005KT 15/12 A2995 RMK A01 T01530116  RH  080%=      5-min Rain = 0
KTIS 130835Z 18005KT 15/12 A2995 RMK A01 T01520116  RH  080%=      5-min Rain = 0
KTIS 130840Z 19004KT 15/12 A2994 RMK A01 T01520115  RH  080%=      5-min Rain = 0
KTIS 130845Z 21004KT 15/12 A2995 RMK A01 T01520116  RH  081%=      5-min Rain = 0
KTIS 130850Z 20004KT 15/12 A2994 RMK A01 T01520116  RH  081%=      5-min Rain = 0
KTIS 130855Z 20004KT 15/12 A2994 RMK A01 T01490115  RH  081%=      5-min Rain = 0
KTIS 130900Z 19003KT 15/11 A2994 RMK A01 T01460114  RH  083%=      5-min Rain = 0
KTIS 130905Z 17002KT 14/11 A2994 RMK A01 T01410114  RH  085%=      5-min Rain = 0
KTIS 130910Z 15002KT 14/11 A2994 RMK A01 T01380114  RH  087%=      5-min Rain = 0
KTIS 130915Z 15003KT 14/11 A2994 RMK A01 T01370114  RH  088%=      5-min Rain = 0
KTIS 130920Z 15003KT 14/11 A2994 RMK A01 T01350114  RH  089%=      5-min Rain = 0
KTIS 130925Z 15005KT 13/12 A2993 RMK A01 T01340115  RH  090%=      5-min Rain = 0
KTIS 130930Z 15005KT 13/12 A2993 RMK A01 T01340115  RH  090%=      5-min Rain = 0
KTIS 130935Z 14005KT 13/12 A2993 RMK A01 T01330115  RH  090%=      5-min Rain = 0
KTIS 130940Z 13005KT 13/11 A2993 RMK A01 T01310114  RH  091%=      5-min Rain = 0
KTIS 130945Z 11005KT 13/11 A2993 RMK A01 T01300114  RH  092%=      5-min Rain = 0
KTIS 130950Z 11005KT 13/11 A2993 RMK A01 T01280113  RH  092%=      5-min Rain = 0
KTIS 130955Z 12005KT 13/11 A2993 RMK A01 T01270113  RH  093%=      5-min Rain = 0
KTIS 131000Z 13003KT 13/11 A2993 RMK A01 T01270113  RH  093%=      5-min Rain = 0
KTIS 131005Z 12003KT 13/11 A2993 RMK A01 T01260113  RH  093%=      5-min Rain = 0
KTIS 131010Z 13001KT 13/11 A2994 RMK A01 T01270113  RH  093%=      5-min Rain = 0
KTIS 131015Z 26001KT 13/11 A2994 RMK A01 T01270112  RH  092%=      5-min Rain = 0
KTIS 131020Z 00000KT 13/11 A2994 RMK A01 T01270111  RH  092%=      5-min Rain = 0
KTIS 131025Z 00000KT 13/12 A2994 RMK A01 T01290115  RH  093%=      5-min Rain = 0
KTIS 131030Z 11001KT 13/11 A2993 RMK A01 T01280114  RH  093%=      5-min Rain = 0
KTIS 131035Z 13003KT 13/11 A2993 RMK A01 T01260111  RH  092%=      5-min Rain = 0
KTIS 131040Z 16004KT 13/11 A2994 RMK A01 T01260111  RH  092%=      5-min Rain = 0
KTIS 131045Z 18004KT 13/11 A2994 RMK A01 T01280109  RH  090%=      5-min Rain = 0
KTIS 131050Z 15004KT 13/11 A2994 RMK A01 T01290109  RH  089%=      5-min Rain = 0
KTIS 131055Z 15005KT 13/11 A2993 RMK A01 T01290110  RH  089%=      5-min Rain = 0
KTIS 131100Z 14005KT 13/11 A2993 RMK A01 T01300110  RH  089%=      5-min Rain = 0
KTIS 131105Z 15004KT 13/11 A2993 RMK A01 T01300109  RH  089%=      5-min Rain = 0
KTIS 131110Z 14005KT 13/11 A2993 RMK A01 T01300110  RH  089%=      5-min Rain = 0
KTIS 131115Z 15004KT 13/11 A2993 RMK A01 T01310110  RH  089%=      5-min Rain = 0
KTIS 131120Z 15004KT 13/11 A2993 RMK A01 T01320110  RH  088%=      5-min Rain = 0
KTIS 131125Z 16004KT 13/11 A2994 RMK A01 T01320110  RH  088%=      5-min Rain = 0
KTIS 131130Z 17004KT 13/11 A2994 RMK A01 T01320110  RH  088%=      5-min Rain = 0
KTIS 131135Z 16003KT 13/11 A2994 RMK A01 T01320109  RH  087%=      5-min Rain = 0
KTIS 131140Z 17002KT 13/11 A2994 RMK A01 T01310108  RH  087%=      5-min Rain = 0
KTIS 131145Z 22001KT 13/11 A2994 RMK A01 T01290106  RH  088%=      5-min Rain = 0
KTIS 131150Z 22000KT 13/10 A2994 RMK A01 T01270104  RH  088%=      5-min Rain = 0
KTIS 131155Z 00000KT 13/11 A2995 RMK A01 T01280110  RH  090%=      5-min Rain = 0
KTIS 131200Z 34002KT 12/11 A2995 RMK A01 T01240106  RH  090%=      5-min Rain = 0
KTIS 131205Z 35005KT 12/10 A2995 RMK A01 T01210104  RH  091%=      5-min Rain = 0
KTIS 131210Z 01006KT 12/10 A2995 RMK A01 T01200104  RH  091%=      5-min Rain = 0
KTIS 131215Z 36005KT 12/10 A2995 RMK A01 T01200103  RH  091%=      5-min Rain = 0
KTIS 131220Z 35004KT 12/10 A2995 RMK A01 T01200104  RH  091%=      5-min Rain = 0
KTIS 131225Z 36005KT 12/10 A2995 RMK A01 T01180103  RH  092%=      5-min Rain = 0
KTIS 131230Z 35005KT 12/10 A2996 RMK A01 T01160102  RH  093%=      5-min Rain = 0
KTIS 131235Z 34004KT 12/10 A2996 RMK A01 T01150101  RH  093%=      5-min Rain = 0
KTIS 131240Z 35004KT 11/10 A2996 RMK A01 T01120099  RH  093%=      5-min Rain = 0
KTIS 131245Z 35004KT 11/10 A2996 RMK A01 T01130102  RH  094%=      5-min Rain = 0
KTIS 131250Z 35004KT 12/10 A2996 RMK A01 T01150104  RH  095%=      5-min Rain = 0
KTIS 131255Z 35004KT 12/11 A2996 RMK A01 T01150105  RH  095%=      5-min Rain = 0
KTIS 131300Z 34002KT 12/11 A2996 RMK A01 T01170106  RH  095%=      5-min Rain = 0
KTIS 131305Z 35001KT 12/11 A2996 RMK A01 T01170106  RH  094%=      5-min Rain = 0
KTIS 131310Z 03001KT 12/11 A2996 RMK A01 T01210110  RH  094%=      5-min Rain = 0
KTIS 131315Z 05000KT 13/11 A2996 RMK A01 T01250113  RH  094%=      5-min Rain = 0
KTIS 131320Z 05000KT 13/12 A2996 RMK A01 T01290116  RH  093%=      5-min Rain = 0
KTIS 131325Z 00000KT 13/12 A2997 RMK A01 T01340118  RH  092%=      5-min Rain = 0
KTIS 131330Z 00000KT 14/12 A2997 RMK A01 T01390120  RH  090%=      5-min Rain = 0
KTIS 131335Z 00000KT 15/12 A2997 RMK A01 T01470124  RH  088%=      5-min Rain = 0
KTIS 131340Z 00000KT 15/12 A2997 RMK A01 T01540124  RH  084%=      5-min Rain = 0
KTIS 131345Z 00000KT 16/12 A2997 RMK A01 T01600122  RH  080%=      5-min Rain = 0
KTIS 131350Z 00000KT 17/13 A2997 RMK A01 T01690127  RH  078%=      5-min Rain = 0
KTIS 131355Z 05000KT 18/13 A2997 RMK A01 T01760130  RH  076%=      5-min Rain = 0
KTIS 131400Z 05000KT 18/13 A2997 RMK A01 T01780129  RH  075%=      5-min Rain = 0
KTIS 131405Z 15001KT 18/13 A2997 RMK A01 T01820127  RH  072%=      5-min Rain = 0
KTIS 131410Z 16002KT 19/13 A2997 RMK A01 T01860125  RH  069%=      5-min Rain = 0
KTIS 131415Z 15002KT 19/13 A2997 RMK A01 T01900127  RH  068%=      5-min Rain = 0
KTIS 131420Z 16003KT 19/13 A2997 RMK A01 T01940127  RH  066%=      5-min Rain = 0
KTIS 131425Z 17004KT 20/13 A2997 RMK A01 T01970125  RH  064%=      5-min Rain = 0
KTIS 131430Z 17004KT 20/12 A2997 RMK A01 T02000124  RH  063%=      5-min Rain = 0
KTIS 131435Z 17005KT 20/12 A2997 RMK A01 T02020123  RH  062%=      5-min Rain = 0
KTIS 131440Z 17004KT 21/13 A2997 RMK A01 T02050126  RH  062%=      5-min Rain = 0
KTIS 131445Z 18004KT 21/12 A2997 RMK A01 T02090122  RH  059%=      5-min Rain = 0
KTIS 131450Z 17003KT 21/13 A2997 RMK A01 T02140127  RH  059%=      5-min Rain = 0
KTIS 131455Z 19005KT 22/12 A2997 RMK A01 T02180122  RH  056%=      5-min Rain = 0
KTIS 131500Z 16004KT 22/13 A2997 RMK A01 T02210127  RH  056%=      5-min Rain = 0
KTIS 131505Z 16005KT 22/13 A2997 RMK A01 T02240126  RH  055%=      5-min Rain = 0
KTIS 131510Z 16004KT 23/13 A2997 RMK A01 T02270131  RH  056%=      5-min Rain = 0
KTIS 131515Z 16005KT 23/13 A2997 RMK A01 T02310131  RH  054%=      5-min Rain = 0
KTIS 131520Z 16006KT 23/13 A2997 RMK A01 T02340129  RH  053%=      5-min Rain = 0
KTIS 131525Z 17007KT 24/13 A2997 RMK A01 T02360128  RH  052%=      5-min Rain = 0
KTIS 131530Z 16007KT 24/13 A2997 RMK A01 T02390127  RH  050%=      5-min Rain = 0
KTIS 131535Z 16008KT 24/13 A2997 RMK A01 T02410127  RH  050%=      5-min Rain = 0
KTIS 131540Z 17007KT 25/13 A2997 RMK A01 T02450126  RH  049%=      5-min Rain = 0
KTIS 131545Z 16008KT 25/13 A2997 RMK A01 T02480127  RH  048%=      5-min Rain = 0
KTIS 131550Z 17007KT 25/13 A2997 RMK A01 T02520129  RH  047%=      5-min Rain = 0
KTIS 131555Z 16007KT 26/13 A2997 RMK A01 T02550129  RH  046%=      5-min Rain = 0
KTIS 131600Z 16008KT 26/13 A2996 RMK A01 T02570130  RH  046%=      5-min Rain = 0
KTIS 131605Z 17009KT 26/13 A2996 RMK A01 T02580131  RH  046%=      5-min Rain = 0
KTIS 131610Z 17009KT 26/13 A2996 RMK A01 T02610127  RH  044%=      5-min Rain = 0
KTIS 131615Z 17009KT 26/13 A2996 RMK A01 T02640128  RH  044%=      5-min Rain = 0
KTIS 131620Z 17009KT 27/13 A2996 RMK A01 T02650128  RH  044%=      5-min Rain = 0
KTIS 131625Z 17009KT 27/13 A2996 RMK A01 T02670128  RH  043%=      5-min Rain = 0
KTIS 131630Z 16010KT 27/13 A2996 RMK A01 T02680128  RH  043%=      5-min Rain = 0
KTIS 131635Z 17010KT 27/13 A2996 RMK A01 T02700126  RH  042%=      5-min Rain = 0
KTIS 131640Z 16011KT 27/13 A2995 RMK A01 T02720129  RH  042%=      5-min Rain = 0
KTIS 131645Z 17010KT 27/13 A2995 RMK A01 T02730130  RH  042%=      5-min Rain = 0
KTIS 131650Z 17010KT 28/13 A2995 RMK A01 T02760129  RH  041%=      5-min Rain = 0
KTIS 131655Z 18009KT 28/13 A2995 RMK A01 T02770129  RH  041%=      5-min Rain = 0
KTIS 131700Z 17008G13KT 28/13 A2995 RMK A01 T02780127  RH  040%=      5-min Rain = 0
KTIS 131705Z 16010KT 28/13 A2995 RMK A01 T02790130  RH  041%=      5-min Rain = 0
KTIS 131710Z 17009G14KT 28/13 A2995 RMK A01 T02810133  RH  041%=      5-min Rain = 0
KTIS 131715Z 18010KT 28/13 A2995 RMK A01 T02840128  RH  039%=      5-min Rain = 0
KTIS 131720Z 18009KT 29/13 A2995 RMK A01 T02870130  RH  039%=      5-min Rain = 0
KTIS 131725Z 18010KT 29/13 A2994 RMK A01 T02890128  RH  038%=      5-min Rain = 0
KTIS 131730Z 16008G14KT 29/14 A2994 RMK A01 T02890135  RH  040%=      5-min Rain = 0
KTIS 131735Z 19009KT 29/13 A2994 RMK A01 T02900128  RH  038%=      5-min Rain = 0
KTIS 131740Z 17008KT 29/13 A2994 RMK A01 T02900131  RH  038%=      5-min Rain = 0
KTIS 131745Z 17008G13KT 29/13 A2994 RMK A01 T02910130  RH  038%=      5-min Rain = 0
KTIS 131750Z 18009G15KT 29/13 A2994 RMK A01 T02930129  RH  037%=      5-min Rain = 0
KTIS 131755Z 16008KT 29/13 A2994 RMK A01 T02940132  RH  038%=      5-min Rain = 0
KTIS 131800Z 17007KT 29/13 A2994 RMK A01 T02940131  RH  038%=      5-min Rain = 0
KTIS 131805Z 18008KT 30/13 A2994 RMK A01 T02950126  RH  036%=      5-min Rain = 0
KTIS 131810Z 17008KT 30/13 A2994 RMK A01 T02960127  RH  036%=      5-min Rain = 0
KTIS 131815Z 17007KT 30/13 A2993 RMK A01 T02960132  RH  037%=      5-min Rain = 0
KTIS 131820Z 19009KT 30/13 A2993 RMK A01 T02990127  RH  036%=      5-min Rain = 0
KTIS 131825Z 18010KT 30/13 A2993 RMK A01 T03000129  RH  036%=      5-min Rain = 0
KTIS 131830Z 17009KT 30/13 A2993 RMK A01 T03000127  RH  035%=      5-min Rain = 0
KTIS 131835Z 15006KT 30/14 A2992 RMK A01 T03010136  RH  037%=      5-min Rain = 0
KTIS 131840Z 19007G12KT 30/13 A2992 RMK A01 T03010129  RH  036%=      5-min Rain = 0
KTIS 131845Z 17006KT 30/13 A2992 RMK A01 T03030132  RH  036%=      5-min Rain = 0
KTIS 131850Z 18008KT 31/13 A2992 RMK A01 T03070130  RH  035%=      5-min Rain = 0
KTIS 131855Z 16008G13KT 31/14 A2992 RMK A01 T03080135  RH  036%=      5-min Rain = 0
KTIS 131900Z 16008KT 31/13 A2992 RMK A01 T03090133  RH  035%=      5-min Rain = 0
KTIS 131905Z 17007KT 31/13 A2991 RMK A01 T03100132  RH  034%=      5-min Rain = 0
KTIS 131910Z 16008KT 31/13 A2991 RMK A01 T03110126  RH  033%=      5-min Rain = 0
KTIS 131915Z 15008G13KT 31/13 A2991 RMK A01 T03100131  RH  034%=      5-min Rain = 0
KTIS 131920Z 15008KT 31/13 A2991 RMK A01 T03120129  RH  033%=      5-min Rain = 0
KTIS 131925Z 16008KT 31/13 A2991 RMK A01 T03120129  RH  034%=      5-min Rain = 0
KTIS 131930Z 16009KT 31/13 A299 RMK A01 T03120128  RH  033%=      5-min Rain = 0
KTIS 131935Z 15008KT 31/13 A299 RMK A01 T03120132  RH  034%=      5-min Rain = 0
KTIS 131940Z 15007KT 31/13 A299 RMK A01 T03130129  RH  033%=      5-min Rain = 0
KTIS 131945Z 16009G15KT 31/13 A299 RMK A01 T03140131  RH  033%=      5-min Rain = 0
KTIS 131950Z 18009KT 32/13 A2989 RMK A01 T03180127  RH  032%=      5-min Rain = 0
KTIS 131955Z 16006KT 32/13 A2989 RMK A01 T03180129  RH  032%=      5-min Rain = 0
KTIS 132000Z 16005KT 32/13 A2989 RMK A01 T03180131  RH  033%=      5-min Rain = 0
KTIS 132005Z 16008G13KT 32/13 A2988 RMK A01 T03190130  RH  032%=      5-min Rain = 0
KTIS 132010Z 16010KT 32/13 A2988 RMK A01 T03200126  RH  031%=      5-min Rain = 0
KTIS 132015Z 16006KT 32/13 A2988 RMK A01 T03170128  RH  032%=      5-min Rain = 0
KTIS 132020Z 18009G16KT 32/12 A2988 RMK A01 T03200121  RH  030%=      5-min Rain = 0
KTIS 132025Z 17007KT 32/12 A2988 RMK A01 T03220117  RH  029%=      5-min Rain = 0
KTIS 132030Z 17007KT 32/13 A2988 RMK A01 T03230125  RH  031%=      5-min Rain = 0
KTIS 132035Z 15008KT 32/13 A2988 RMK A01 T03220130  RH  032%=      5-min Rain = 0
KTIS 132040Z 17009KT 32/13 A2987 RMK A01 T03210126  RH  031%=      5-min Rain = 0
KTIS 132045Z 18008KT 32/12 A2987 RMK A01 T03210121  RH  030%=      5-min Rain = 0
KTIS 132050Z 19009G14KT 32/12 A2987 RMK A01 T03240116  RH  028%=      5-min Rain = 0
KTIS 132055Z 19009G15KT 33/12 A2987 RMK A01 T03260116  RH  028%=      5-min Rain = 0
KTIS 132100Z 21009KT 33/11 A2987 RMK A01 T03280110  RH  027%=      5-min Rain = 0
KTIS 132105Z 18009G14KT 33/11 A2987 RMK A01 T03270113  RH  028%=      5-min Rain = 0
KTIS 132110Z 16008KT 33/12 A2987 RMK A01 T03250117  RH  029%=      5-min Rain = 0
KTIS 132115Z 19012KT 33/11 A2986 RMK A01 T03250110  RH  027%=      5-min Rain = 0
KTIS 132120Z 19009KT 32/11 A2986 RMK A01 T03240112  RH  028%=      5-min Rain = 0
KTIS 132125Z 19007G12KT 33/11 A2986 RMK A01 T03250114  RH  028%=      5-min Rain = 0
KTIS 132130Z 17007KT 33/12 A2986 RMK A01 T03250121  RH  029%=      5-min Rain = 0
KTIS 132135Z 17010KT 33/12 A2986 RMK A01 T03250117  RH  029%=      5-min Rain = 0
KTIS 132140Z 17009KT 33/11 A2986 RMK A01 T03250113  RH  028%=      5-min Rain = 0
KTIS 132145Z 17009G15KT 32/11 A2986 RMK A01 T03230112  RH  028%=      5-min Rain = 0
KTIS 132150Z 18008KT 32/11 A2986 RMK A01 T03240114  RH  028%=      5-min Rain = 0
KTIS 132155Z 18009G14KT 33/11 A2986 RMK A01 T03260113  RH  028%=      5-min Rain = 0
KTIS 132200Z 15009KT 32/12 A2985 RMK A01 T03230117  RH  029%=      5-min Rain = 0
KTIS 132205Z 16008KT 32/12 A2985 RMK A01 T03210120  RH  030%=      5-min Rain = 0
KTIS 132210Z 19009KT 32/11 A2985 RMK A01 T03230111  RH  028%=      5-min Rain = 0
KTIS 132215Z 17008KT 32/12 A2985 RMK A01 T03240116  RH  029%=      5-min Rain = 0
KTIS 132220Z 16007KT 32/12 A2985 RMK A01 T03230118  RH  029%=      5-min Rain = 0
KTIS 132225Z 16009KT 32/12 A2985 RMK A01 T03220119  RH  029%=      5-min Rain = 0
KTIS 132230Z 16009KT 32/12 A2985 RMK A01 T03200118  RH  029%=      5-min Rain = 0
KTIS 132235Z 16009KT 32/12 A2985 RMK A01 T03190118  RH  030%=      5-min Rain = 0
KTIS 132240Z 15009KT 32/12 A2985 RMK A01 T03180120  RH  030%=      5-min Rain = 0
KTIS 132245Z 16010KT 32/12 A2985 RMK A01 T03170120  RH  030%=      5-min Rain = 0
KTIS 132250Z 16009KT 32/12 A2985 RMK A01 T03160117  RH  030%=      5-min Rain = 0
KTIS 132255Z 16009KT 32/12 A2985 RMK A01 T03160117  RH  030%=      5-min Rain = 0
KTIS 132300Z 18009KT 32/11 A2985 RMK A01 T03170112  RH  029%=      5-min Rain = 0
KTIS 132305Z 17007KT 32/12 A2985 RMK A01 T03190116  RH  029%=      5-min Rain = 0
KTIS 132310Z 16008KT 32/12 A2985 RMK A01 T03170121  RH  031%=      5-min Rain = 0
KTIS 132315Z 19009KT 32/11 A2985 RMK A01 T03160110  RH  029%=      5-min Rain = 0
KTIS 132320Z 19009KT 32/11 A2985 RMK A01 T03180108  RH  028%=      5-min Rain = 0
KTIS 132325Z 19009KT 32/11 A2985 RMK A01 T03180108  RH  028%=      5-min Rain = 0
KTIS 132330Z 18006KT 32/12 A2985 RMK A01 T03160115  RH  030%=      5-min Rain = 0
KTIS 132335Z 17006KT 31/12 A2985 RMK A01 T03140118  RH  031%=      5-min Rain = 0
KTIS 132340Z 17006KT 31/12 A2985 RMK A01 T03110119  RH  031%=      5-min Rain = 0
KTIS 132345Z 16007KT 31/12 A2985 RMK A01 T03080119  RH  032%=      5-min Rain = 0
KTIS 132350Z 16007KT 30/12 A2985 RMK A01 T03040120  RH  033%=      5-min Rain = 0
KTIS 132355Z 17005KT 30/13 A2985 RMK A01 T03000128  RH  035%=      5-min Rain = 0
KTIS 140000Z 18005KT 30/13 A2985 RMK A01 T02990127  RH  035%=      5-min Rain = 0
KTIS 140005Z 17005KT 30/14 A2985 RMK A01 T02980143  RH  040%=      5-min Rain = 0
KTIS 140010Z 17004KT 30/15 A2985 RMK A01 T02950153  RH  043%=      5-min Rain = 0
KTIS 140015Z 17005KT 29/16 A2985 RMK A01 T02910155  RH  045%=      5-min Rain = 0
KTIS 140020Z 16005KT 29/15 A2985 RMK A01 T02860154  RH  046%=      5-min Rain = 0
KTIS 140025Z 16005KT 28/16 A2985 RMK A01 T02800155  RH  048%=      5-min Rain = 0
KTIS 140030Z 15005KT 27/16 A2985 RMK A01 T02740156  RH  049%=      5-min Rain = 0
KTIS 140035Z 15005KT 27/16 A2985 RMK A01 T02680156  RH  051%=      5-min Rain = 0
KTIS 140040Z 15005KT 26/16 A2985 RMK A01 T02610156  RH  054%=      5-min Rain = 0
KTIS 140045Z 15006KT 26/15 A2985 RMK A01 T02550153  RH  054%=      5-min Rain = 0
KTIS 140050Z 14006KT 25/15 A2985 RMK A01 T02510151  RH  055%=      5-min Rain = 0
KTIS 140055Z 14007KT 25/15 A2985 RMK A01 T02460147  RH  055%=      5-min Rain = 0
KTIS 140100Z 14007KT 24/15 A2985 RMK A01 T02420145  RH  056%=      5-min Rain = 0
KTIS 140105Z 14007KT 24/14 A2985 RMK A01 T02370144  RH  057%=      5-min Rain = 0
KTIS 140110Z 13007KT 23/14 A2985 RMK A01 T02330141  RH  057%=      5-min Rain = 0
KTIS 140115Z 14006KT 23/14 A2985 RMK A01 T02320136  RH  056%=      5-min Rain = 0
KTIS 140120Z 14006KT 23/14 A2986 RMK A01 T02300137  RH  057%=      5-min Rain = 0
KTIS 140125Z 13006KT 23/14 A2986 RMK A01 T02280136  RH  057%=      5-min Rain = 0
KTIS 140130Z 13006KT 23/14 A2986 RMK A01 T02260135  RH  057%=      5-min Rain = 0
KTIS 140135Z 13005KT 23/13 A2986 RMK A01 T02250134  RH  057%=      5-min Rain = 0
KTIS 140140Z 10007KT 22/13 A2986 RMK A01 T02240133  RH  058%=      5-min Rain = 0
KTIS 140145Z 09007KT 22/13 A2987 RMK A01 T02190134  RH  059%=      5-min Rain = 0
KTIS 140150Z 09007KT 22/13 A2987 RMK A01 T02170134  RH  060%=      5-min Rain = 0
KTIS 140155Z 10007KT 22/13 A2987 RMK A01 T02160134  RH  061%=      5-min Rain = 0
KTIS 140200Z 10006KT 21/14 A2987 RMK A01 T02140136  RH  062%=      5-min Rain = 0
KTIS 140205Z 09006KT 21/14 A2987 RMK A01 T02090137  RH  065%=      5-min Rain = 0
KTIS 140210Z 10006KT 21/14 A2987 RMK A01 T02050137  RH  066%=      5-min Rain = 0
KTIS 140215Z 10006KT 20/14 A2987 RMK A01 T02020137  RH  068%=      5-min Rain = 0
KTIS 140220Z 09006KT 20/14 A2987 RMK A01 T01990137  RH  069%=      5-min Rain = 0
KTIS 140225Z 10006KT 20/14 A2988 RMK A01 T01970137  RH  070%=      5-min Rain = 0
KTIS 140230Z 10007KT 20/14 A2988 RMK A01 T01960135  RH  069%=      5-min Rain = 0
KTIS 140235Z 10007KT 20/14 A2988 RMK A01 T01960135  RH  069%=      5-min Rain = 0
KTIS 140240Z 10007KT 20/14 A2988 RMK A01 T01960136  RH  069%=      5-min Rain = 0
KTIS 140245Z 11007KT 20/14 A2988 RMK A01 T01950135  RH  070%=      5-min Rain = 0
KTIS 140250Z 11006KT 19/14 A2988 RMK A01 T01940135  RH  070%=      5-min Rain = 0
KTIS 140255Z 10006KT 19/14 A2988 RMK A01 T01920135  RH  071%=      5-min Rain = 0
KTIS 140300Z 10005KT 19/14 A2989 RMK A01 T01900135  RH  072%=      5-min Rain = 0
KTIS 140305Z 10005KT 19/13 A2989 RMK A01 T01880134  RH  073%=      5-min Rain = 0
KTIS 140310Z 11005KT 19/14 A2989 RMK A01 T01860135  RH  074%=      5-min Rain = 0
KTIS 140315Z 12005KT 18/13 A2989 RMK A01 T01840134  RH  074%=      5-min Rain = 0
KTIS 140320Z 12005KT 19/13 A2989 RMK A01 T01850133  RH  073%=      5-min Rain = 0
KTIS 140325Z 12005KT 19/13 A2989 RMK A01 T01870132  RH  072%=      5-min Rain = 0
KTIS 140330Z 12006KT 19/13 A299 RMK A01 T01880130  RH  070%=      5-min Rain = 0
KTIS 140335Z 12006KT 19/13 A299 RMK A01 T01890128  RH  069%=      5-min Rain = 0
KTIS 140340Z 12006KT 19/13 A299 RMK A01 T01910126  RH  067%=      5-min Rain = 0
KTIS 140345Z 12006KT 19/13 A299 RMK A01 T01920125  RH  066%=      5-min Rain = 0
KTIS 140350Z 12005KT 19/13 A299 RMK A01 T01920125  RH  066%=      5-min Rain = 0
KTIS 140355Z 13005KT 19/13 A299 RMK A01 T01900126  RH  067%=      5-min Rain = 0
KTIS 140400Z 12005KT 19/13 A299 RMK A01 T01870126  RH  069%=      5-min Rain = 0
KTIS 140405Z 11004KT 18/13 A299 RMK A01 T01830128  RH  072%=      5-min Rain = 0
KTIS 140410Z 09004KT 18/13 A2989 RMK A01 T01780127  RH  074%=      5-min Rain = 0
KTIS 140415Z 10004KT 18/12 A2989 RMK A01 T01750124  RH  074%=      5-min Rain = 0
KTIS 140420Z 10004KT 17/12 A2989 RMK A01 T01740124  RH  074%=      5-min Rain = 0
KTIS 140425Z 11003KT 17/12 A2989 RMK A01 T01730124  RH  074%=      5-min Rain = 0
KTIS 140430Z 10003KT 17/12 A2989 RMK A01 T01720124  RH  075%=      5-min Rain = 0
KTIS 140435Z 10004KT 17/12 A2989 RMK A01 T01710123  RH  075%=      5-min Rain = 0
KTIS 140440Z 10004KT 17/12 A299 RMK A01 T01700122  RH  075%=      5-min Rain = 0
KTIS 140445Z 11003KT 17/12 A299 RMK A01 T01690121  RH  075%=      5-min Rain = 0
KTIS 140450Z 12003KT 17/12 A299 RMK A01 T01690121  RH  075%=      5-min Rain = 0
KTIS 140455Z 13003KT 17/12 A299 RMK A01 T01700121  RH  074%=      5-min Rain = 0

Page generated in 0.027 seconds.